Williams, AZ

2:32 AM MST on December 22, 2014 (GMT -0700)
Bellemont, AZ | Change Station
CLOSE
Current Station
Personal Weather Station
Location: Bellemont, AZ
Elevation: 7165 ft
Nearby Weather Stations

Elev 7165 ft 35.23 °N, 111.81 °W | Updated 6 seconds ago

Clear
Clear
35.4 °F
Feels Like 35 °F
N
0.0
Wind Variable Wind from East
Gusts 0.0 mph

Today
High -- | Low -- °F
--% Chance of Precip.
Yesterday
High -- | Low -- °F
Precip. -- in
7:34 AM 5:20 PM
New Moon, 0% visible
Pressure 29.94 in
Visibility 10.0 miles
Clouds Clear
Windchill 35 °F
Dew Point 31 °F
Humidity 82%
Rainfall 0.00 in
Snow Depth Not available.
UV 0 out of 12
Pollen 2.40 out of 12
Air Quality Not available.
Flu Activity Not available.
METAR KFLG 220857Z AUTO 23003KT 10SM CLR 05/M01 A3011 RMK AO2 SLP139 T00501006 58002 TSNO

More Conditions Fewer Conditions

Pressure 29.94 in
Visibility 10.0 miles
Clouds Clear
Windchill 35 °F
Dew Point 31 °F
Humidity 82%
Rainfall 0.00 in
Snow Depth Not available.
UV 0 out of 12
Pollen 2.40 out of 12
Air Quality Not available.
Flu Activity Not available.
METAR KFLG 220857Z AUTO 23003KT 10SM CLR 05/M01 A3011 RMK AO2 SLP139 T00501006 58002 TSNO

More Conditions Fewer Conditions

10-Day Weather Forecast

Almanac

Astronomy

Dec. 22, 2014 Rise Set
Actual Time
Civil Twilight
Nautical Twilight
Astronomical Twilight
Moon
Length of Visible Light
Length of Day
Tomorrow will be .
, % of the Moon is Illuminated

Today's Extremes

State Highs State Lows

Community

WunderPhotos

Upload Photos

1,779,583 photos uploaded!

WunderBlogs® & News

Nearby

Air Quality

  Air Quality AQ Index Pollutant
Not available.

Snow Depth

Station Depth Elevation

Earthquake Activity

City Distance Mag. Time & Date
Minimum magnitude displayed is 2.5.

Coastal Water Temperatures

Place Temperature

Nearby Weather Stations